Time;durP1;ratioP1;P1;durP2;ratioP2;P2;SDS_P1;SDS_P2;PMS_P1;PMS_P2;Temp;Humidity;BMP_temperature;BMP_pressure;BME280_temperature;BME280_humidity;BME280_pressure;Samples;Min_cycle;Max_cycle;Signal;HPM_P1;HPM_P2
2021/07/14 00:01:11;;;;;;;64.97;18.90;;;;;;;;;;5061080;28;20193;-88
2021/07/14 00:03:37;;;;;;;47.55;16.75;;;;;;;;;;5050043;28;20535;-88
2021/07/14 00:06:03;;;;;;;50.33;15.60;;;;;;;;;;5059425;28;20553;-88
2021/07/14 00:08:29;;;;;;;53.10;16.55;;;;;;;;;;5022768;28;20441;-88
2021/07/14 00:10:55;;;;;;;49.58;16.70;;;;;;;;;;5022738;28;20242;-88
2021/07/14 00:24:07;;;;;;;39.15;15.82;;;;;;;;;;5046397;28;20723;-86
2021/07/14 00:26:33;;;;;;;53.08;17.83;;;;;;;;;;5013209;28;20190;-88
2021/07/14 00:29:01;;;;;;;52.22;16.20;;;;;;;;;;5017665;28;20220;-89
2021/07/14 00:31:27;;;;;;;59.20;17.88;;;;;;;;;;5023189;28;20650;-88
2021/07/14 00:33:53;;;;;;;58.43;17.67;;;;;;;;;;5045138;28;20421;-89
2021/07/14 00:36:19;;;;;;;48.40;16.97;;;;;;;;;;5060959;28;20472;-87
2021/07/14 00:38:45;;;;;;;47.97;16.45;;;;;;;;;;5061331;28;20439;-87
2021/07/14 00:41:11;;;;;;;60.53;17.80;;;;;;;;;;5046004;28;20200;-88
2021/07/14 00:43:37;;;;;;;55.25;18.40;;;;;;;;;;5026130;28;20720;-88
2021/07/14 00:46:20;;;;;;;86.07;19.67;;;;;;;;;;5060420;28;20181;-88
2021/07/14 00:48:48;;;;;;;74.28;17.55;;;;;;;;;;5029398;28;20222;-89
2021/07/14 00:51:14;;;;;;;40.67;16.95;;;;;;;;;;5041811;28;20174;-87
2021/07/14 00:53:41;;;;;;;44.53;15.57;;;;;;;;;;5016017;28;20280;-88
2021/07/14 00:56:07;;;;;;;52.65;16.60;;;;;;;;;;5018203;28;20436;-88
2021/07/14 00:58:33;;;;;;;45.63;15.02;;;;;;;;;;5026799;28;20199;-88
2021/07/14 01:01:00;;;;;;;42.95;16.95;;;;;;;;;;5060360;28;20178;-88
2021/07/14 01:03:30;;;;;;;56.08;16.88;;;;;;;;;;5060797;28;20177;-88
2021/07/14 01:05:57;;;;;;;41.85;14.45;;;;;;;;;;5058624;28;20276;-87
2021/07/14 01:08:38;;;;;;;46.17;15.73;;;;;;;;;;5060180;28;20182;-89
2021/07/14 01:11:07;;;;;;;39.63;13.43;;;;;;;;;;5044455;28;20182;-88
2021/07/14 01:13:49;;;;;;;31.95;13.73;;;;;;;;;;5025803;28;20288;-88
2021/07/14 01:16:17;;;;;;;39.70;14.38;;;;;;;;;;5060782;28;20192;-87
2021/07/14 01:18:42;;;;;;;57.30;15.15;;;;;;;;;;5059792;28;20186;-87
2021/07/14 01:21:15;;;;;;;46.87;14.87;;;;;;;;;;5060600;28;20185;-88
2021/07/14 01:23:41;;;;;;;40.00;13.15;;;;;;;;;;5039095;28;20424;-88
2021/07/14 01:26:07;;;;;;;33.80;13.83;;;;;;;;;;5019962;28;20186;-88
2021/07/14 01:28:36;;;;;;;62.03;16.63;;;;;;;;;;5034604;28;20444;-87
2021/07/14 01:31:02;;;;;;;43.13;14.68;;;;;;;;;;5026786;28;20428;-88
2021/07/14 01:33:30;;;;;;;36.45;13.40;;;;;;;;;;5058910;28;20216;-88
2021/07/14 01:35:57;;;;;;;37.03;13.23;;;;;;;;;;5043156;28;20647;-87
2021/07/14 01:38:25;;;;;;;29.35;13.20;;;;;;;;;;5022036;28;20189;-88
2021/07/14 01:40:54;;;;;;;34.78;14.63;;;;;;;;;;5021641;28;20178;-87
2021/07/14 01:43:20;;;;;;;41.50;13.00;;;;;;;;;;5010256;28;20213;-87
2021/07/14 01:45:47;;;;;;;41.63;13.10;;;;;;;;;;5043896;28;20662;-88
2021/07/14 01:48:14;;;;;;;37.42;12.90;;;;;;;;;;5060554;28;20221;-88
2021/07/14 01:50:41;;;;;;;30.50;13.25;;;;;;;;;;5059730;28;20190;-89
2021/07/14 01:53:08;;;;;;;46.00;13.98;;;;;;;;;;5043974;28;20245;-88
2021/07/14 01:55:37;;;;;;;33.92;12.05;;;;;;;;;;5021349;28;20182;-89
2021/07/14 01:58:03;;;;;;;33.53;13.80;;;;;;;;;;5026090;28;20618;-86
2021/07/14 02:00:30;;;;;;;34.53;12.77;;;;;;;;;;5059814;28;20182;-89
2021/07/14 02:03:18;;;;;;;61.47;15.00;;;;;;;;;;5060054;28;20316;-88
2021/07/14 02:05:45;;;;;;;23.05;12.35;;;;;;;;;;5048340;28;20209;-87
2021/07/14 02:08:12;;;;;;;31.35;12.15;;;;;;;;;;5040541;28;20184;-88
2021/07/14 02:10:38;;;;;;;48.50;13.60;;;;;;;;;;5025420;28;20193;-89
2021/07/14 02:13:05;;;;;;;37.95;13.40;;;;;;;;;;5025596;28;20198;-87
2021/07/14 02:15:31;;;;;;;45.28;14.43;;;;;;;;;;5059134;28;20192;-88
2021/07/14 02:18:00;;;;;;;26.60;11.93;;;;;;;;;;5058149;28;20263;-87
2021/07/14 02:20:26;;;;;;;26.63;10.98;;;;;;;;;;5016678;28;20205;-88
2021/07/14 02:22:52;;;;;;;23.00;10.47;;;;;;;;;;5014708;28;20217;-88
2021/07/14 02:25:19;;;;;;;31.70;12.18;;;;;;;;;;5013970;28;20455;-89
2021/07/14 02:27:45;;;;;;;39.88;11.80;;;;;;;;;;5026657;28;20196;-89
2021/07/14 02:30:18;;;;;;;29.60;12.20;;;;;;;;;;5044437;28;20192;-88
2021/07/14 02:32:55;;;;;;;26.20;10.45;;;;;;;;;;5059580;28;20188;-87
2021/07/14 02:35:21;;;;;;;26.70;9.77;;;;;;;;;;5016523;28;20712;-87
2021/07/14 02:37:51;;;;;;;23.40;10.77;;;;;;;;;;5035711;28;20228;-88
2021/07/14 02:40:20;;;;;;;35.15;11.68;;;;;;;;;;5021358;28;20182;-88
2021/07/14 02:42:46;;;;;;;30.55;10.73;;;;;;;;;;5044053;28;20196;-88
2021/07/14 02:45:12;;;;;;;22.52;11.38;;;;;;;;;;5059533;28;20178;-87
2021/07/14 02:47:41;;;;;;;28.33;10.52;;;;;;;;;;5047261;28;20209;-87
2021/07/14 02:50:16;;;;;;;24.70;10.10;;;;;;;;;;5024575;28;20189;-88
2021/07/14 02:52:45;;;;;;;32.45;10.48;;;;;;;;;;5024407;28;20207;-87
2021/07/14 02:55:14;;;;;;;30.27;10.52;;;;;;;;;;5062286;28;20220;-88
2021/07/14 02:57:41;;;;;;;24.13;9.60;;;;;;;;;;5047713;28;20208;-88
2021/07/14 03:00:07;;;;;;;18.15;9.50;;;;;;;;;;5063425;28;20174;-87
2021/07/14 03:02:34;;;;;;;22.05;9.45;;;;;;;;;;5062783;28;20182;-87
2021/07/14 03:05:00;;;;;;;24.80;10.13;;;;;;;;;;5046555;28;20324;-90
2021/07/14 03:07:27;;;;;;;28.33;9.68;;;;;;;;;;5029427;28;20181;-88
2021/07/14 03:09:54;;;;;;;29.63;9.73;;;;;;;;;;5046454;28;20186;-89
2021/07/14 03:12:21;;;;;;;37.78;11.32;;;;;;;;;;5062752;28;20212;-88
2021/07/14 03:14:48;;;;;;;24.05;10.15;;;;;;;;;;5062585;28;20227;-87
2021/07/14 03:17:15;;;;;;;27.58;9.98;;;;;;;;;;5021276;28;20269;-88
2021/07/14 03:19:42;;;;;;;32.25;9.60;;;;;;;;;;5038336;28;20215;-87
2021/07/14 03:22:08;;;;;;;28.98;10.50;;;;;;;;;;5062020;28;20302;-88
2021/07/14 03:24:35;;;;;;;25.88;9.48;;;;;;;;;;5061502;28;20181;-88
2021/07/14 03:27:02;;;;;;;18.35;9.20;;;;;;;;;;5063477;28;20173;-87
2021/07/14 03:29:29;;;;;;;23.63;9.95;;;;;;;;;;5019747;28;20190;-87
2021/07/14 03:31:55;;;;;;;20.40;10.68;;;;;;;;;;5040069;28;20190;-86
2021/07/14 03:34:21;;;;;;;25.15;10.55;;;;;;;;;;5061588;28;20782;-87
2021/07/14 03:36:48;;;;;;;21.85;9.45;;;;;;;;;;5028073;28;20229;-87
2021/07/14 03:39:15;;;;;;;17.92;8.55;;;;;;;;;;5062506;28;20170;-86
2021/07/14 03:41:41;;;;;;;26.38;9.82;;;;;;;;;;5047091;28;20178;-87
2021/07/14 03:44:08;;;;;;;32.10;9.57;;;;;;;;;;5021512;28;20187;-87
2021/07/14 03:46:34;;;;;;;23.40;10.30;;;;;;;;;;5019198;28;20645;-87
2021/07/14 03:49:00;;;;;;;19.10;8.23;;;;;;;;;;5046391;28;20218;-87
2021/07/14 03:51:27;;;;;;;21.83;8.18;;;;;;;;;;5061884;28;20189;-87
2021/07/14 03:53:53;;;;;;;19.05;9.20;;;;;;;;;;5046214;28;20254;-87
2021/07/14 03:56:23;;;;;;;30.08;9.15;;;;;;;;;;5023667;28;20192;-87
2021/07/14 03:58:49;;;;;;;24.90;9.45;;;;;;;;;;5024148;28;20173;-87
2021/07/14 04:01:17;;;;;;;20.38;8.65;;;;;;;;;;5028165;28;20197;-87
2021/07/14 04:03:43;;;;;;;33.53;9.38;;;;;;;;;;5012407;28;20177;-86
2021/07/14 04:06:10;;;;;;;22.48;9.32;;;;;;;;;;5061258;28;20254;-87
2021/07/14 04:08:39;;;;;;;30.38;9.40;;;;;;;;;;5023448;28;20186;-86
2021/07/14 04:11:06;;;;;;;21.83;8.30;;;;;;;;;;5023576;28;20254;-86
2021/07/14 04:13:32;;;;;;;32.60;9.70;;;;;;;;;;5045163;28;20198;-85
2021/07/14 04:15:58;;;;;;;16.20;9.00;;;;;;;;;;5060171;28;20186;-86
2021/07/14 04:18:24;;;;;;;24.20;9.10;;;;;;;;;;5061525;28;20225;-86
2021/07/14 04:20:50;;;;;;;22.75;9.57;;;;;;;;;;5060434;28;20708;-86
2021/07/14 04:23:16;;;;;;;21.98;8.05;;;;;;;;;;5019600;28;20256;-86
2021/07/14 04:25:42;;;;;;;17.57;8.07;;;;;;;;;;5014734;28;20185;-89
2021/07/14 04:28:08;;;;;;;18.07;9.70;;;;;;;;;;5027742;28;20431;-86
2021/07/14 04:30:34;;;;;;;28.13;10.23;;;;;;;;;;5061483;28;20420;-86
2021/07/14 04:33:00;;;;;;;31.77;9.60;;;;;;;;;;5061596;28;20169;-86
2021/07/14 04:35:27;;;;;;;20.80;8.45;;;;;;;;;;5021696;28;20192;-86
2021/07/14 04:37:53;;;;;;;28.00;9.57;;;;;;;;;;5022918;28;20248;-86
2021/07/14 04:40:22;;;;;;;24.80;8.25;;;;;;;;;;5027343;28;20178;-86
2021/07/14 04:42:48;;;;;;;27.00;9.60;;;;;;;;;;5027093;28;20182;-86
2021/07/14 04:45:14;;;;;;;24.43;8.47;;;;;;;;;;5061550;28;20178;-87
2021/07/14 04:47:40;;;;;;;18.50;8.93;;;;;;;;;;5022979;28;20436;-86
2021/07/14 04:50:06;;;;;;;27.40;9.57;;;;;;;;;;5019937;28;20441;-86
2021/07/14 04:52:32;;;;;;;18.38;8.60;;;;;;;;;;5013950;28;20520;-87
2021/07/14 04:54:58;;;;;;;19.27;8.90;;;;;;;;;;5060073;28;20204;-87
2021/07/14 04:57:24;;;;;;;22.15;9.15;;;;;;;;;;5060432;28;20170;-87
2021/07/14 04:59:50;;;;;;;16.03;9.77;;;;;;;;;;5061214;28;20261;-87
2021/07/14 05:02:16;;;;;;;25.73;8.50;;;;;;;;;;5022813;28;20833;-87
2021/07/14 05:04:42;;;;;;;22.30;9.40;;;;;;;;;;5021189;28;20508;-86
2021/07/14 05:07:08;;;;;;;18.05;9.25;;;;;;;;;;5044035;28;20436;-87
2021/07/14 05:09:34;;;;;;;22.33;9.50;;;;;;;;;;5045109;28;20184;-85
2021/07/14 05:12:00;;;;;;;19.30;9.30;;;;;;;;;;5061100;28;20181;-86
2021/07/14 05:14:27;;;;;;;18.25;9.25;;;;;;;;;;5059599;28;20249;-86
2021/07/14 05:16:53;;;;;;;20.23;8.00;;;;;;;;;;5044135;28;20215;-86
2021/07/14 05:19:19;;;;;;;21.13;9.52;;;;;;;;;;5044256;28;20185;-86
2021/07/14 05:21:45;;;;;;;24.77;8.97;;;;;;;;;;5009844;28;20262;-86
2021/07/14 05:24:11;;;;;;;19.10;8.77;;;;;;;;;;5045415;28;20416;-86
2021/07/14 05:26:38;;;;;;;19.05;9.43;;;;;;;;;;5015382;28;20445;-85
2021/07/14 05:29:04;;;;;;;23.15;9.60;;;;;;;;;;5039746;28;20204;-86
2021/07/14 05:31:30;;;;;;;21.67;9.20;;;;;;;;;;5022086;28;20178;-86
2021/07/14 05:33:56;;;;;;;15.82;8.70;;;;;;;;;;5059165;28;20210;-87
2021/07/14 05:36:22;;;;;;;19.33;8.53;;;;;;;;;;5010906;28;20237;-87
2021/07/14 05:38:50;;;;;;;26.27;8.68;;;;;;;;;;5044929;28;20412;-87
2021/07/14 05:41:17;;;;;;;23.67;9.07;;;;;;;;;;5018459;28;20185;-86
2021/07/14 05:43:42;;;;;;;19.30;9.25;;;;;;;;;;5018123;28;20243;-87
2021/07/14 05:46:09;;;;;;;17.83;8.10;;;;;;;;;;5059073;28;20644;-86
2021/07/14 05:48:35;;;;;;;22.25;7.88;;;;;;;;;;5059256;28;20495;-86
2021/07/14 05:51:01;;;;;;;20.15;7.80;;;;;;;;;;5060058;28;20186;-86
2021/07/14 05:53:27;;;;;;;18.00;8.85;;;;;;;;;;5022421;28;20206;-86
2021/07/14 05:55:53;;;;;;;13.43;7.50;;;;;;;;;;5021372;28;20181;-87
2021/07/14 05:58:19;;;;;;;15.90;7.78;;;;;;;;;;5010546;28;20190;-87
2021/07/14 06:00:45;;;;;;;13.85;7.90;;;;;;;;;;5028463;28;20181;-90
2021/07/14 06:03:11;;;;;;;11.90;7.30;;;;;;;;;;5060048;28;20206;-86
2021/07/14 06:05:37;;;;;;;16.48;8.02;;;;;;;;;;5058524;28;20188;-87
2021/07/14 06:08:04;;;;;;;13.55;6.70;;;;;;;;;;5015294;28;20210;-86
2021/07/14 06:10:30;;;;;;;20.02;8.20;;;;;;;;;;5034370;28;20197;-85
2021/07/14 06:12:58;;;;;;;13.80;6.72;;;;;;;;;;5025711;28;20656;-86
2021/07/14 06:15:25;;;;;;;11.45;6.65;;;;;;;;;;5043518;28;20197;-86
2021/07/14 06:17:51;;;;;;;12.77;6.57;;;;;;;;;;5058674;28;20192;-86
2021/07/14 06:20:17;;;;;;;12.27;6.32;;;;;;;;;;5012941;28;20215;-86
2021/07/14 06:22:43;;;;;;;14.48;6.10;;;;;;;;;;5013625;28;20538;-86
2021/07/14 06:25:11;;;;;;;16.83;5.73;;;;;;;;;;5059411;28;20196;-87
2021/07/14 06:27:37;;;;;;;12.95;6.30;;;;;;;;;;5059120;28;20528;-86
2021/07/14 06:30:07;;;;;;;10.93;6.28;;;;;;;;;;5059908;28;20178;-86
2021/07/14 06:32:33;;;;;;;10.77;5.53;;;;;;;;;;5043134;28;20182;-86
2021/07/14 06:35:00;;;;;;;8.40;5.63;;;;;;;;;;5042904;28;20285;-86
2021/07/14 06:37:26;;;;;;;11.40;6.07;;;;;;;;;;5025993;28;21007;-86
2021/07/14 06:39:53;;;;;;;11.13;7.13;;;;;;;;;;5058664;28;20185;-88
2021/07/14 06:42:19;;;;;;;8.63;5.30;;;;;;;;;;5059379;28;20184;-86
2021/07/14 06:44:45;;;;;;;10.32;6.07;;;;;;;;;;5058488;28;20180;-87
2021/07/14 06:47:11;;;;;;;10.65;6.95;;;;;;;;;;5020293;28;20189;-86
2021/07/14 06:49:37;;;;;;;10.65;5.78;;;;;;;;;;5042812;28;20193;-87
2021/07/14 06:52:03;;;;;;;8.80;5.35;;;;;;;;;;5043465;28;20193;-86
2021/07/14 06:54:29;;;;;;;10.88;6.40;;;;;;;;;;5058916;28;20212;-86
2021/07/14 06:56:55;;;;;;;9.25;6.00;;;;;;;;;;5059232;28;20178;-87
2021/07/14 06:59:21;;;;;;;8.35;5.80;;;;;;;;;;5058159;28;20185;-87
2021/07/14 07:01:47;;;;;;;10.82;5.72;;;;;;;;;;5020752;28;20193;-86
2021/07/14 07:04:13;;;;;;;9.75;5.60;;;;;;;;;;5026134;28;20193;-86
2021/07/14 07:06:39;;;;;;;12.50;5.72;;;;;;;;;;5042610;28;20178;-86
2021/07/14 07:09:06;;;;;;;8.93;5.20;;;;;;;;;;5059665;28;20272;-87
2021/07/14 07:11:35;;;;;;;10.00;4.55;;;;;;;;;;5015275;28;20447;-85
2021/07/14 07:14:01;;;;;;;6.85;5.43;;;;;;;;;;5037018;28;20201;-88
2021/07/14 07:16:27;;;;;;;13.73;4.88;;;;;;;;;;5042328;28;20189;-86
2021/07/14 07:18:54;;;;;;;9.18;5.30;;;;;;;;;;5025075;28;20181;-87
2021/07/14 07:21:20;;;;;;;8.75;4.93;;;;;;;;;;5059064;28;20178;-86
2021/07/14 07:23:46;;;;;;;8.83;4.67;;;;;;;;;;5059190;28;20184;-89
2021/07/14 07:26:15;;;;;;;13.93;5.90;;;;;;;;;;5020745;28;20460;-88
2021/07/14 07:28:42;;;;;;;15.13;5.00;;;;;;;;;;5043073;28;20710;-86
2021/07/14 07:31:09;;;;;;;9.02;4.53;;;;;;;;;;5045691;28;20182;-86
2021/07/14 07:33:36;;;;;;;7.70;4.80;;;;;;;;;;5046587;28;20196;-85
2021/07/14 07:36:06;;;;;;;8.65;4.72;;;;;;;;;;5046729;28;20174;-86
2021/07/14 07:38:37;;;;;;;11.18;4.57;;;;;;;;;;5028432;28;20182;-87
2021/07/14 07:41:04;;;;;;;4.95;3.88;;;;;;;;;;5022292;28;20182;-85
2021/07/14 07:43:31;;;;;;;6.15;4.43;;;;;;;;;;5036255;28;20239;-86
2021/07/14 07:45:57;;;;;;;5.90;4.80;;;;;;;;;;5061340;28;20262;-86
2021/07/14 07:48:23;;;;;;;4.53;4.00;;;;;;;;;;5062215;28;20173;-86
2021/07/14 07:50:50;;;;;;;6.63;4.45;;;;;;;;;;5045304;28;20178;-86
2021/07/14 07:53:20;;;;;;;8.20;4.38;;;;;;;;;;5020227;28;20197;-86
2021/07/14 07:55:49;;;;;;;5.15;4.40;;;;;;;;;;5017719;28;20185;-86
2021/07/14 07:58:16;;;;;;;5.40;3.90;;;;;;;;;;5012139;28;20182;-88
2021/07/14 08:00:42;;;;;;;6.55;4.15;;;;;;;;;;5061107;28;20185;-87
2021/07/14 08:03:08;;;;;;;9.00;4.20;;;;;;;;;;5047179;28;20173;-88
2021/07/14 08:05:34;;;;;;;7.17;3.97;;;;;;;;;;5017238;28;20630;-87
2021/07/14 08:08:00;;;;;;;5.13;3.55;;;;;;;;;;5012772;28;20440;-87
2021/07/14 08:10:26;;;;;;;5.90;4.05;;;;;;;;;;5017630;28;20178;-86
2021/07/14 08:12:52;;;;;;;7.10;3.55;;;;;;;;;;5027617;28;20201;-88
2021/07/14 08:15:18;;;;;;;11.52;4.20;;;;;;;;;;5045621;28;20538;-87
2021/07/14 08:17:45;;;;;;;5.00;4.60;;;;;;;;;;5061869;28;20174;-87
2021/07/14 08:20:13;;;;;;;3.95;3.15;;;;;;;;;;5060711;28;20192;-87
2021/07/14 08:22:39;;;;;;;7.45;3.25;;;;;;;;;;5027996;28;20190;-87
2021/07/14 08:25:06;;;;;;;5.40;2.85;;;;;;;;;;5060535;28;20182;-86
2021/07/14 08:27:32;;;;;;;5.28;3.33;;;;;;;;;;5044314;28;20178;-86
2021/07/14 08:29:59;;;;;;;5.85;3.63;;;;;;;;;;5062341;28;20253;-89
2021/07/14 08:32:28;;;;;;;6.70;3.72;;;;;;;;;;5018781;28;20189;-86
2021/07/14 08:34:55;;;;;;;3.25;2.80;;;;;;;;;;5016041;28;20669;-88
2021/07/14 08:37:22;;;;;;;3.63;3.10;;;;;;;;;;5012256;28;20232;-87
2021/07/14 08:39:49;;;;;;;4.05;3.17;;;;;;;;;;5045123;28;20217;-87
2021/07/14 08:42:16;;;;;;;3.65;2.85;;;;;;;;;;5061261;28;20173;-86
2021/07/14 08:44:42;;;;;;;3.90;3.47;;;;;;;;;;5045466;28;20181;-88
2021/07/14 08:47:08;;;;;;;3.88;3.00;;;;;;;;;;5021161;28;20186;-87
2021/07/14 08:49:35;;;;;;;4.30;2.97;;;;;;;;;;5036025;28;20198;-86
2021/07/14 08:52:01;;;;;;;3.30;3.00;;;;;;;;;;5026861;28;20277;-86
2021/07/14 08:54:27;;;;;;;3.08;2.80;;;;;;;;;;5060536;28;20673;-86
2021/07/14 08:56:53;;;;;;;4.53;2.50;;;;;;;;;;5060824;28;20181;-86
2021/07/14 08:59:20;;;;;;;3.63;3.33;;;;;;;;;;5022182;28;20208;-87
2021/07/14 09:01:46;;;;;;;2.63;2.42;;;;;;;;;;5044790;28;20432;-87
2021/07/14 09:04:12;;;;;;;4.35;3.00;;;;;;;;;;5027099;28;20273;-88
2021/07/14 09:06:38;;;;;;;4.15;3.05;;;;;;;;;;5059564;28;20202;-89
2021/07/14 09:09:04;;;;;;;3.40;3.10;;;;;;;;;;5045495;28;20174;-88
2021/07/14 09:11:30;;;;;;;3.45;2.80;;;;;;;;;;5022594;28;20193;-86
2021/07/14 09:13:56;;;;;;;5.63;3.28;;;;;;;;;;5017019;28;20206;-86
2021/07/14 09:16:33;;;;;;;5.47;3.15;;;;;;;;;;5015808;28;20182;-86
2021/07/14 09:19:27;;;;;;;2.70;2.50;;;;;;;;;;5059633;28;20261;-88
2021/07/14 09:21:53;;;;;;;3.55;2.70;;;;;;;;;;5041013;28;20202;-86
2021/07/14 09:24:33;;;;;;;3.58;2.90;;;;;;;;;;5045438;28;20181;-86
2021/07/14 09:27:03;;;;;;;4.47;2.50;;;;;;;;;;5058140;28;20177;-87
2021/07/14 09:29:30;;;;;;;4.57;2.65;;;;;;;;;;5059243;28;20217;-86
2021/07/14 09:31:56;;;;;;;13.75;3.50;;;;;;;;;;5044358;28;20220;-87
2021/07/14 09:34:32;;;;;;;2.75;2.55;;;;;;;;;;5026316;28;20221;-87
2021/07/14 09:37:03;;;;;;;3.95;2.72;;;;;;;;;;5059199;28;20285;-87
2021/07/14 09:39:34;;;;;;;2.30;2.20;;;;;;;;;;5043718;28;20629;-87
2021/07/14 09:42:01;;;;;;;6.47;2.95;;;;;;;;;;5058632;28;20166;-87
2021/07/14 09:44:27;;;;;;;3.47;2.97;;;;;;;;;;5059319;28;20227;-88
2021/07/14 09:47:09;;;;;;;3.47;3.17;;;;;;;;;;5021886;28;20282;-86
2021/07/14 09:49:36;;;;;;;3.58;2.70;;;;;;;;;;5021113;28;20190;-87
2021/07/14 09:52:34;;;;;;;3.17;2.88;;;;;;;;;;5043099;28;20241;-87
2021/07/14 09:55:07;;;;;;;5.38;2.90;;;;;;;;;;4980124;28;20221;-86
2021/07/14 09:57:35;;;;;;;3.75;2.60;;;;;;;;;;4997553;28;20468;-87
2021/07/14 10:00:17;;;;;;;5.75;3.30;;;;;;;;;;4971763;28;20616;-87
2021/07/14 10:02:54;;;;;;;3.53;3.22;;;;;;;;;;4999255;28;20179;-86
2021/07/14 10:05:20;;;;;;;3.30;2.95;;;;;;;;;;4980123;28;20257;-86
2021/07/14 10:07:46;;;;;;;3.75;3.00;;;;;;;;;;4975791;28;20179;-87
2021/07/14 10:10:12;;;;;;;4.20;2.83;;;;;;;;;;4981691;28;20191;-86
2021/07/14 10:12:39;;;;;;;4.47;4.03;;;;;;;;;;4976799;28;20447;-85
2021/07/14 10:15:08;;;;;;;3.20;2.95;;;;;;;;;;4977302;28;20203;-85
2021/07/14 10:17:37;;;;;;;3.03;2.83;;;;;;;;;;4998622;28;20200;-86
2021/07/14 10:20:21;;;;;;;4.13;3.60;;;;;;;;;;4977088;28;20259;-85
2021/07/14 10:22:50;;;;;;;5.28;3.13;;;;;;;;;;4984877;28;20184;-86
2021/07/14 10:25:17;;;;;;;5.07;3.13;;;;;;;;;;4975289;28;20223;-86
2021/07/14 10:27:43;;;;;;;6.72;3.25;;;;;;;;;;4995305;28;20215;-87
2021/07/14 10:30:10;;;;;;;5.55;3.88;;;;;;;;;;5018866;28;20194;-87
2021/07/14 10:32:36;;;;;;;7.68;3.75;;;;;;;;;;5035792;28;20243;-88
2021/07/14 10:35:03;;;;;;;3.83;3.03;;;;;;;;;;5058411;28;20273;-88
2021/07/14 10:37:29;;;;;;;3.53;3.22;;;;;;;;;;5021638;28;20245;-88
2021/07/14 10:39:55;;;;;;;3.30;3.00;;;;;;;;;;5057670;28;20190;-88
2021/07/14 10:42:21;;;;;;;4.57;3.28;;;;;;;;;;5010285;28;20200;-87
2021/07/14 10:44:48;;;;;;;3.45;3.20;;;;;;;;;;5059240;28;20181;-85
2021/07/14 10:47:15;;;;;;;4.05;3.45;;;;;;;;;;5044235;28;20184;-87
2021/07/14 10:49:41;;;;;;;3.80;3.50;;;;;;;;;;5025063;28;20673;-87
2021/07/14 10:52:09;;;;;;;3.72;3.42;;;;;;;;;;5058050;28;20278;-86
2021/07/14 10:54:35;;;;;;;8.95;3.95;;;;;;;;;;5058610;28;20205;-88
2021/07/14 10:57:04;;;;;;;4.35;3.40;;;;;;;;;;5059725;28;20178;-86
2021/07/14 10:59:31;;;;;;;3.92;3.63;;;;;;;;;;5021027;28;20262;-88
2021/07/14 11:01:57;;;;;;;4.32;3.92;;;;;;;;;;5043244;28;20196;-87
2021/07/14 11:04:26;;;;;;;4.20;3.90;;;;;;;;;;5023702;28;20179;-87
2021/07/14 11:06:55;;;;;;;4.70;3.90;;;;;;;;;;5061319;28;20187;-87
2021/07/14 11:09:51;;;;;;;3.97;3.50;;;;;;;;;;5046968;28;20179;-86
2021/07/14 11:12:32;;;;;;;3.83;3.40;;;;;;;;;;5048587;28;20200;-87
2021/07/14 11:15:00;;;;;;;4.38;3.97;;;;;;;;;;5032794;28;20207;-88
2021/07/14 11:17:30;;;;;;;4.75;3.85;;;;;;;;;;5022401;28;20178;-89
2021/07/14 11:20:05;;;;;;;7.13;4.22;;;;;;;;;;5019699;28;20180;-86
2021/07/14 11:22:38;;;;;;;7.95;3.97;;;;;;;;;;5037025;28;20290;-88
2021/07/14 11:25:08;;;;;;;4.70;3.85;;;;;;;;;;5029032;28;20238;-88
2021/07/14 11:27:40;;;;;;;5.15;4.68;;;;;;;;;;5046947;28;20265;-86
2021/07/14 11:30:07;;;;;;;4.13;3.83;;;;;;;;;;5062941;28;20189;-88
2021/07/14 11:35:04;;;;;;;4.65;4.25;;;;;;;;;;5045590;28;20215;-88
2021/07/14 11:37:31;;;;;;;5.85;4.57;;;;;;;;;;5045761;28;20226;-87
2021/07/14 11:40:17;;;;;;;5.07;4.20;;;;;;;;;;5045674;28;20174;-89
2021/07/14 11:43:09;;;;;;;5.10;4.70;;;;;;;;;;5058405;28;20221;-88
2021/07/14 11:45:36;;;;;;;5.75;4.25;;;;;;;;;;5043473;28;20192;-87
2021/07/14 11:48:02;;;;;;;4.50;3.75;;;;;;;;;;5062717;28;20187;-87
2021/07/14 11:50:46;;;;;;;4.47;4.07;;;;;;;;;;5017691;28;20190;-87
2021/07/14 11:56:12;;;;;;;4.40;4.00;;;;;;;;;;5046584;28;20273;-88
2021/07/14 11:58:57;;;;;;;4.43;4.03;;;;;;;;;;5061208;28;20491;-87
2021/07/14 12:01:26;;;;;;;4.10;3.80;;;;;;;;;;5061095;28;20214;-87
2021/07/14 12:06:40;;;;;;;4.18;3.83;;;;;;;;;;5045296;28;20242;-86
2021/07/14 12:09:12;;;;;;;4.20;3.90;;;;;;;;;;5061515;28;20187;-88
2021/07/14 12:11:46;;;;;;;3.90;3.70;;;;;;;;;;5045688;28;20187;-89
2021/07/14 12:14:15;;;;;;;5.33;3.87;;;;;;;;;;5025696;28;20205;-87
2021/07/14 12:16:45;;;;;;;5.35;4.25;;;;;;;;;;5045484;28;20437;-88
2021/07/14 12:19:11;;;;;;;4.40;4.00;;;;;;;;;;5060638;28;20246;-87
2021/07/14 12:21:38;;;;;;;3.63;3.33;;;;;;;;;;5060781;28;20185;-87
2021/07/14 12:24:04;;;;;;;3.97;3.67;;;;;;;;;;5046735;28;20409;-86
2021/07/14 12:26:30;;;;;;;3.30;3.10;;;;;;;;;;5018133;28;20427;-87
2021/07/14 12:28:57;;;;;;;4.20;3.90;;;;;;;;;;5016640;28;20415;-84
2021/07/14 12:31:24;;;;;;;4.03;3.72;;;;;;;;;;5012166;28;20454;-86
2021/07/14 12:33:50;;;;;;;3.92;3.63;;;;;;;;;;5044755;28;20255;-87
2021/07/14 12:36:17;;;;;;;3.97;3.58;;;;;;;;;;5046204;28;20201;-86
2021/07/14 12:38:51;;;;;;;3.35;3.15;;;;;;;;;;5045919;28;20189;-86
2021/07/14 12:41:17;;;;;;;3.85;3.50;;;;;;;;;;5019822;28;20186;-87
2021/07/14 12:43:43;;;;;;;4.00;3.70;;;;;;;;;;5014374;28;20667;-88
2021/07/14 12:46:09;;;;;;;4.37;4.07;;;;;;;;;;5060647;28;20415;-86
2021/07/14 12:48:35;;;;;;;6.43;4.33;;;;;;;;;;5044330;28;20391;-86
2021/07/14 12:51:01;;;;;;;3.67;3.37;;;;;;;;;;5045646;28;20402;-86
2021/07/14 12:53:27;;;;;;;3.50;3.20;;;;;;;;;;5045458;28;20436;-86
2021/07/14 12:55:53;;;;;;;6.20;3.60;;;;;;;;;;5044615;28;20802;-87
2021/07/14 12:58:22;;;;;;;4.13;3.50;;;;;;;;;;5022972;28;20426;-87
2021/07/14 13:00:51;;;;;;;3.63;3.33;;;;;;;;;;5060316;28;20810;-87
2021/07/14 13:03:22;;;;;;;3.70;3.42;;;;;;;;;;5056621;28;20395;-85
2021/07/14 13:05:48;;;;;;;4.10;3.70;;;;;;;;;;5045663;28;20178;-87
2021/07/14 13:08:16;;;;;;;3.67;3.28;;;;;;;;;;5044496;28;20625;-86
2021/07/14 13:10:43;;;;;;;4.63;3.70;;;;;;;;;;5021946;28;20232;-86
2021/07/14 13:13:10;;;;;;;3.83;3.53;;;;;;;;;;5060070;28;20174;-88
2021/07/14 13:15:36;;;;;;;3.80;3.50;;;;;;;;;;5044080;28;20434;-87
2021/07/14 13:18:13;;;;;;;3.60;3.30;;;;;;;;;;5045234;28;20819;-86
2021/07/14 13:20:39;;;;;;;3.50;3.30;;;;;;;;;;5052650;28;20418;-87
2021/07/14 13:23:05;;;;;;;3.83;3.63;;;;;;;;;;5060119;28;20427;-87
2021/07/14 13:25:39;;;;;;;3.40;3.20;;;;;;;;;;5060444;28;20462;-86
2021/07/14 13:28:14;;;;;;;3.23;2.97;;;;;;;;;;5043697;28;20412;-87
2021/07/14 13:30:46;;;;;;;4.63;4.27;;;;;;;;;;5051644;28;20411;-87
2021/07/14 13:33:24;;;;;;;3.57;3.33;;;;;;;;;;5060131;28;20453;-88
2021/07/14 13:35:50;;;;;;;3.40;3.20;;;;;;;;;;5031473;28;20456;-88
2021/07/14 13:38:28;;;;;;;4.20;3.60;;;;;;;;;;5015732;28;20436;-87
2021/07/14 13:41:01;;;;;;;3.70;3.40;;;;;;;;;;5037273;28;20451;-87
2021/07/14 13:43:37;;;;;;;4.03;3.70;;;;;;;;;;5043719;28;20435;-86
2021/07/14 13:46:03;;;;;;;3.97;3.67;;;;;;;;;;5043301;28;20406;-86
2021/07/14 13:48:29;;;;;;;4.33;3.83;;;;;;;;;;5043332;28;20416;-86
2021/07/14 13:50:55;;;;;;;4.20;3.90;;;;;;;;;;5059737;28;20425;-87
2021/07/14 13:53:28;;;;;;;3.87;3.57;;;;;;;;;;5018403;28;20404;-86
2021/07/14 13:56:01;;;;;;;6.27;4.33;;;;;;;;;;5014918;28;21030;-88
2021/07/14 13:58:27;;;;;;;4.70;3.90;;;;;;;;;;5011247;28;20408;-85
2021/07/14 14:00:57;;;;;;;4.90;4.47;;;;;;;;;;5042666;28;20415;-84
2021/07/14 14:03:23;;;;;;;4.70;4.33;;;;;;;;;;5044186;28;20415;-85
2021/07/14 14:06:02;;;;;;;5.40;5.00;;;;;;;;;;5043834;28;20398;-85
2021/07/14 14:08:28;;;;;;;5.40;4.90;;;;;;;;;;5043241;28;20431;-84
2021/07/14 14:10:55;;;;;;;5.73;5.23;;;;;;;;;;5016358;28;20835;-86
2021/07/14 14:13:31;;;;;;;5.77;5.13;;;;;;;;;;5032559;28;20399;-86
2021/07/14 14:15:57;;;;;;;5.60;4.97;;;;;;;;;;5024499;28;20413;-86
2021/07/14 14:18:23;;;;;;;5.37;4.97;;;;;;;;;;5044066;28;20412;-86
2021/07/14 14:20:49;;;;;;;5.60;5.20;;;;;;;;;;5058719;28;20474;-86
2021/07/14 14:23:15;;;;;;;6.13;5.53;;;;;;;;;;5018149;28;20568;-86
2021/07/14 14:25:54;;;;;;;6.70;6.10;;;;;;;;;;5016879;28;20515;-84
2021/07/14 14:28:21;;;;;;;6.03;5.63;;;;;;;;;;5058689;28;20410;-86
2021/07/14 14:30:49;;;;;;;6.00;5.40;;;;;;;;;;5026830;28;20973;-85
2021/07/14 14:33:15;;;;;;;6.47;5.87;;;;;;;;;;5055396;28;20449;-86
2021/07/14 14:35:42;;;;;;;6.10;5.50;;;;;;;;;;5042707;28;20522;-86
2021/07/14 14:38:09;;;;;;;6.60;6.00;;;;;;;;;;5023084;28;20446;-86
2021/07/14 14:40:35;;;;;;;5.90;5.50;;;;;;;;;;5024478;28;20419;-87
2021/07/14 14:43:02;;;;;;;5.30;4.80;;;;;;;;;;5046902;28;20432;-84
2021/07/14 14:45:28;;;;;;;6.93;6.33;;;;;;;;;;5046983;28;20505;-87
2021/07/14 14:47:54;;;;;;;5.60;5.20;;;;;;;;;;5048487;28;20399;-86
2021/07/14 14:50:20;;;;;;;6.37;5.90;;;;;;;;;;5028902;28;20439;-85
2021/07/14 14:52:47;;;;;;;6.60;6.10;;;;;;;;;;5024697;28;20463;-85
2021/07/14 14:55:14;;;;;;;6.63;6.13;;;;;;;;;;5046813;28;20453;-88
2021/07/14 14:57:40;;;;;;;7.23;6.60;;;;;;;;;;5062970;28;20448;-87